Time;durP1;ratioP1;P1;durP2;ratioP2;P2;SDS_P1;SDS_P2;PMS_P1;PMS_P2;Temp;Humidity;BMP_temperature;BMP_pressure;BME280_temperature;BME280_humidity;BME280_pressure;Samples;Min_cycle;Max_cycle;Signal;HPM_P1;HPM_P2
2022/09/18 00:02:01;;;;;;;10.10;3.92;;;11.00;94.40;;;;;;4957240;28;20077;-53
2022/09/18 00:04:29;;;;;;;8.45;4.20;;;11.00;94.60;;;;;;4956368;28;20130;-55
2022/09/18 00:06:56;;;;;;;7.53;3.58;;;11.00;94.50;;;;;;4957567;29;20047;-54
2022/09/18 00:09:23;;;;;;;7.20;4.07;;;10.90;94.50;;;;;;4957487;29;20043;-55
2022/09/18 00:11:50;;;;;;;8.32;3.60;;;11.00;94.60;;;;;;4957381;28;20050;-57
2022/09/18 00:14:16;;;;;;;7.60;3.65;;;10.90;94.70;;;;;;4956648;28;20109;-56
2022/09/18 00:16:43;;;;;;;7.38;3.63;;;10.90;94.70;;;;;;4955695;28;20427;-57
2022/09/18 00:19:10;;;;;;;6.55;3.45;;;10.90;94.70;;;;;;4957533;28;20075;-57
2022/09/18 00:21:36;;;;;;;9.52;3.80;;;10.90;94.60;;;;;;4957480;28;20142;-58
2022/09/18 00:24:03;;;;;;;9.15;4.10;;;10.90;94.80;;;;;;4957187;28;20495;-57
2022/09/18 00:26:30;;;;;;;9.23;3.60;;;10.90;94.90;;;;;;4957512;28;20051;-59
2022/09/18 00:28:56;;;;;;;7.43;3.30;;;10.80;94.90;;;;;;4955625;28;20051;-57
2022/09/18 00:31:28;;;;;;;7.35;3.72;;;10.80;95.00;;;;;;4955565;28;20095;-60
2022/09/18 00:33:56;;;;;;;6.38;3.70;;;10.70;95.10;;;;;;4954429;28;20047;-58
2022/09/18 00:36:23;;;;;;;9.05;3.95;;;10.70;95.10;;;;;;4956108;28;20043;-58
2022/09/18 00:38:49;;;;;;;7.90;3.47;;;10.70;95.20;;;;;;4956046;29;20401;-56
2022/09/18 00:41:16;;;;;;;6.10;3.28;;;10.70;95.40;;;;;;4956953;28;20043;-55
2022/09/18 00:43:43;;;;;;;7.15;3.40;;;10.60;95.30;;;;;;4956223;28;20126;-58
2022/09/18 00:46:10;;;;;;;6.18;3.47;;;10.60;95.40;;;;;;4956874;28;20067;-58
2022/09/18 00:48:36;;;;;;;6.47;3.58;;;10.60;95.50;;;;;;4956121;28;20078;-56
2022/09/18 00:51:03;;;;;;;9.27;3.15;;;10.60;95.60;;;;;;4953422;28;20389;-57
2022/09/18 00:53:30;;;;;;;7.18;2.97;;;10.50;95.60;;;;;;4956655;28;20514;-57
2022/09/18 00:55:57;;;;;;;8.43;3.45;;;10.50;95.70;;;;;;4954614;28;20047;-58
2022/09/18 00:58:24;;;;;;;7.53;3.00;;;10.50;95.70;;;;;;4956600;28;20043;-58
2022/09/18 01:00:50;;;;;;;6.13;3.25;;;10.40;95.80;;;;;;4954345;29;20085;-59
2022/09/18 01:03:17;;;;;;;7.25;3.03;;;10.40;96.10;;;;;;4956042;28;20155;-56
2022/09/18 01:05:44;;;;;;;8.57;3.00;;;10.40;95.80;;;;;;4952976;28;20110;-56
2022/09/18 01:08:11;;;;;;;9.20;3.33;;;10.40;95.80;;;;;;4955192;28;20043;-56
2022/09/18 01:10:38;;;;;;;4.72;2.47;;;10.40;96.00;;;;;;4956288;28;20126;-54
2022/09/18 01:13:04;;;;;;;4.85;2.83;;;10.30;95.90;;;;;;4955007;28;20175;-54
2022/09/18 01:15:33;;;;;;;5.90;2.83;;;10.30;96.10;;;;;;4956273;29;20055;-54
2022/09/18 01:18:00;;;;;;;5.68;2.85;;;10.30;96.00;;;;;;4956342;28;20035;-56
2022/09/18 01:20:27;;;;;;;6.20;2.95;;;10.30;96.10;;;;;;4955111;28;20391;-56
2022/09/18 01:22:53;;;;;;;6.28;2.65;;;10.30;96.10;;;;;;4956198;28;20067;-56
2022/09/18 01:25:20;;;;;;;8.30;2.65;;;10.30;96.20;;;;;;4955502;28;20031;-53
2022/09/18 01:27:47;;;;;;;4.60;2.58;;;10.30;96.30;;;;;;4956223;28;20046;-55
2022/09/18 01:30:14;;;;;;;4.50;2.65;;;10.40;96.30;;;;;;4952429;28;20040;-59
2022/09/18 01:32:40;;;;;;;6.90;2.42;;;10.40;96.30;;;;;;4954618;28;20043;-58
2022/09/18 01:35:07;;;;;;;10.30;2.75;;;10.30;96.30;;;;;;4951725;28;20047;-57
2022/09/18 01:37:49;;;;;;;5.65;2.60;;;10.40;96.30;;;;;;4940197;29;20039;-62
2022/09/18 01:40:16;;;;;;;5.88;2.60;;;10.40;96.30;;;;;;4952336;29;20126;-57
2022/09/18 01:42:43;;;;;;;6.32;2.20;;;10.40;96.30;;;;;;4952814;29;20110;-57
2022/09/18 01:45:11;;;;;;;6.03;2.55;;;10.40;96.30;;;;;;4954545;28;20043;-59
2022/09/18 01:47:38;;;;;;;4.15;2.22;;;10.40;96.30;;;;;;4953295;29;20043;-54
2022/09/18 01:50:05;;;;;;;4.78;2.60;;;10.40;96.40;;;;;;4953415;28;20048;-59
2022/09/18 01:52:32;;;;;;;6.53;2.28;;;10.40;96.50;;;;;;4952994;28;20511;-55
2022/09/18 01:54:59;;;;;;;5.93;2.40;;;10.40;96.40;;;;;;4955098;28;20054;-54
2022/09/18 01:57:26;;;;;;;4.60;2.10;;;10.30;96.50;;;;;;4953646;29;20050;-55
2022/09/18 01:59:54;;;;;;;5.05;2.35;;;10.30;96.70;;;;;;4952929;28;20503;-56
2022/09/18 02:02:21;;;;;;;6.82;2.40;;;10.30;96.70;;;;;;4952223;28;20096;-59
2022/09/18 02:04:49;;;;;;;5.55;2.20;;;10.30;96.70;;;;;;4952943;28;20051;-57
2022/09/18 02:07:16;;;;;;;4.78;2.17;;;10.30;96.80;;;;;;4953295;29;20050;-59
2022/09/18 02:09:43;;;;;;;5.70;2.50;;;10.30;96.80;;;;;;4938563;29;20483;-60
2022/09/18 02:12:11;;;;;;;5.40;2.65;;;10.30;96.70;;;;;;4953818;28;20517;-54
2022/09/18 02:14:38;;;;;;;4.28;2.25;;;10.30;96.80;;;;;;4954840;28;20114;-54
2022/09/18 02:17:30;;;;;;;4.47;1.85;;;10.30;96.90;;;;;;4953010;29;20043;-57
2022/09/18 02:19:58;;;;;;;7.53;2.17;;;10.30;96.90;;;;;;4950971;28;20424;-53
2022/09/18 02:22:25;;;;;;;4.82;2.08;;;10.30;96.90;;;;;;4952649;29;20039;-58
2022/09/18 02:24:54;;;;;;;3.70;1.98;;;10.30;97.00;;;;;;4955330;28;20043;-55
2022/09/18 02:27:21;;;;;;;3.50;2.10;;;10.30;97.00;;;;;;4954134;28;20414;-56
2022/09/18 02:29:47;;;;;;;5.38;2.28;;;10.20;97.10;;;;;;4955491;28;20472;-55
2022/09/18 02:32:17;;;;;;;5.25;2.13;;;10.20;97.10;;;;;;4955185;28;20118;-58
2022/09/18 02:34:44;;;;;;;4.45;1.85;;;10.20;97.30;;;;;;4950082;28;20098;-53
2022/09/18 02:37:11;;;;;;;3.90;1.88;;;10.20;97.40;;;;;;4953602;29;20070;-56
2022/09/18 02:39:38;;;;;;;6.13;1.95;;;10.20;97.50;;;;;;4954215;29;20050;-56
2022/09/18 02:42:05;;;;;;;5.43;2.10;;;10.20;97.40;;;;;;4954001;28;20051;-56
2022/09/18 02:44:32;;;;;;;5.60;1.98;;;10.20;97.40;;;;;;4950034;28;20075;-57
2022/09/18 02:46:59;;;;;;;3.45;1.88;;;10.10;97.50;;;;;;4950479;29;20443;-57
2022/09/18 02:49:25;;;;;;;3.72;2.00;;;10.10;97.60;;;;;;4949645;29;20138;-53
2022/09/18 02:51:53;;;;;;;3.63;1.77;;;10.10;97.70;;;;;;4951004;28;20075;-59
2022/09/18 02:54:20;;;;;;;5.03;1.90;;;10.10;97.80;;;;;;4950907;28;20051;-53
2022/09/18 02:56:47;;;;;;;4.20;1.85;;;10.00;97.80;;;;;;4949267;29;20044;-58
2022/09/18 02:59:14;;;;;;;5.85;1.80;;;10.00;97.80;;;;;;4952442;29;20454;-57
2022/09/18 03:01:45;;;;;;;5.93;2.33;;;10.00;97.90;;;;;;4958847;28;20043;-54
2022/09/18 03:04:16;;;;;;;6.22;2.20;;;9.90;98.00;;;;;;4953047;29;20051;-57
2022/09/18 03:07:03;;;;;;;4.90;2.03;;;9.90;98.10;;;;;;4950787;29;20074;-57
2022/09/18 03:09:36;;;;;;;3.33;1.80;;;9.90;98.20;;;;;;4952835;29;20098;-58
2022/09/18 03:12:02;;;;;;;4.65;1.42;;;9.90;98.20;;;;;;4953922;28;20075;-54
2022/09/18 03:14:34;;;;;;;5.90;2.10;;;9.90;98.50;;;;;;4956622;28;20106;-58
2022/09/18 03:17:01;;;;;;;6.82;2.15;;;9.80;98.30;;;;;;4958688;28;20047;-57
2022/09/18 03:19:29;;;;;;;5.35;2.28;;;9.80;98.30;;;;;;4957056;28;20054;-56
2022/09/18 03:21:57;;;;;;;4.50;2.28;;;9.80;98.40;;;;;;4956355;28;20110;-55
2022/09/18 03:24:27;;;;;;;3.67;1.73;;;9.80;98.40;;;;;;4956556;28;20047;-58
2022/09/18 03:26:56;;;;;;;3.15;1.75;;;9.80;98.40;;;;;;4957161;29;20047;-55
2022/09/18 03:29:25;;;;;;;3.63;2.00;;;9.80;98.50;;;;;;4956387;29;20058;-57
2022/09/18 03:31:53;;;;;;;6.88;2.00;;;9.70;98.50;;;;;;4956328;29;20067;-56
2022/09/18 03:34:21;;;;;;;4.72;2.08;;;9.70;98.50;;;;;;4956937;29;20044;-56
2022/09/18 03:36:48;;;;;;;4.25;1.95;;;9.70;98.60;;;;;;4955543;29;20044;-57
2022/09/18 03:39:16;;;;;;;4.30;1.88;;;9.70;98.60;;;;;;4944061;29;20044;-56
2022/09/18 03:41:44;;;;;;;7.57;2.10;;;9.70;98.60;;;;;;4956983;28;20109;-55
2022/09/18 03:44:11;;;;;;;3.92;2.20;;;9.70;98.80;;;;;;4955802;29;20058;-53
2022/09/18 03:46:40;;;;;;;3.80;2.08;;;9.70;98.70;;;;;;4956851;29;20081;-57
2022/09/18 03:49:07;;;;;;;5.95;2.28;;;9.70;98.80;;;;;;4956305;29;20526;-57
2022/09/18 03:51:36;;;;;;;3.88;1.95;;;9.70;98.90;;;;;;4955231;29;20071;-55
2022/09/18 03:54:05;;;;;;;3.47;2.25;;;9.70;98.90;;;;;;4953378;28;20050;-57
2022/09/18 03:56:50;;;;;;;5.90;2.10;;;9.70;98.90;;;;;;4957143;28;20406;-59
2022/09/18 03:59:35;;;;;;;4.32;2.08;;;9.70;98.90;;;;;;4957859;28;20066;-54
2022/09/18 04:02:12;;;;;;;4.32;1.77;;;9.70;99.20;;;;;;4954885;29;20510;-58
2022/09/18 04:05:12;;;;;;;6.32;2.40;;;9.70;99.00;;;;;;4950863;28;20055;-56
2022/09/18 04:07:57;;;;;;;4.25;2.50;;;9.80;98.90;;;;;;4956197;29;20054;-56
2022/09/18 04:10:44;;;;;;;5.28;2.33;;;9.80;98.90;;;;;;4957443;28;20051;-54
2022/09/18 04:13:11;;;;;;;6.47;2.30;;;9.90;99.00;;;;;;4952072;28;20054;-56
2022/09/18 04:15:38;;;;;;;3.50;1.80;;;9.90;99.00;;;;;;4957305;28;20562;-58
2022/09/18 04:18:05;;;;;;;5.72;1.90;;;9.90;99.00;;;;;;4956039;29;20102;-55
2022/09/18 04:20:32;;;;;;;4.82;2.15;;;9.90;99.10;;;;;;4957350;28;20035;-57
2022/09/18 04:22:59;;;;;;;3.97;1.85;;;9.80;99.20;;;;;;4955231;28;20134;-54
2022/09/18 04:25:25;;;;;;;4.55;2.20;;;9.80;99.20;;;;;;4954037;28;20135;-56
2022/09/18 04:27:53;;;;;;;3.28;2.10;;;9.80;99.20;;;;;;4957279;28;20126;-57
2022/09/18 04:30:21;;;;;;;5.38;2.20;;;9.90;99.30;;;;;;4952818;28;20114;-53
2022/09/18 04:32:48;;;;;;;6.82;2.28;;;9.80;99.20;;;;;;4960918;28;20142;-56
2022/09/18 04:35:17;;;;;;;5.00;2.15;;;9.90;99.20;;;;;;4969955;28;20591;-56
2022/09/18 04:37:44;;;;;;;5.65;2.00;;;9.90;99.30;;;;;;4955464;28;20067;-52
2022/09/18 04:40:11;;;;;;;5.35;2.03;;;9.80;99.30;;;;;;4955719;29;20094;-55
2022/09/18 04:42:40;;;;;;;4.35;2.05;;;9.80;99.40;;;;;;4953972;29;20039;-58
2022/09/18 04:45:07;;;;;;;6.57;2.20;;;9.80;99.40;;;;;;4952216;29;20182;-58
2022/09/18 04:47:34;;;;;;;6.10;2.00;;;9.80;99.40;;;;;;4954597;29;20070;-58
2022/09/18 04:50:03;;;;;;;5.78;2.10;;;9.70;99.50;;;;;;4952391;29;20055;-56
2022/09/18 04:52:30;;;;;;;4.28;2.50;;;9.70;99.60;;;;;;4950249;29;20043;-56
2022/09/18 04:54:57;;;;;;;6.30;2.40;;;9.70;99.60;;;;;;4954415;28;20130;-57
2022/09/18 04:57:23;;;;;;;5.22;2.50;;;9.70;99.70;;;;;;4953074;28;20051;-57
2022/09/18 04:59:50;;;;;;;5.15;2.20;;;9.70;99.80;;;;;;4951858;29;20122;-54
2022/09/18 05:02:17;;;;;;;5.68;2.38;;;9.70;99.90;;;;;;4962604;28;20163;-59
2022/09/18 05:04:44;;;;;;;4.10;2.22;;;9.60;99.90;;;;;;4956764;28;20050;-55
2022/09/18 05:07:20;;;;;;;6.95;2.22;;;9.60;99.90;;;;;;4954512;28;20516;-59
2022/09/18 05:09:47;;;;;;;4.15;2.00;;;9.60;99.90;;;;;;4955722;29;20051;-55
2022/09/18 05:12:14;;;;;;;4.53;1.85;;;9.60;99.90;;;;;;4951521;28;20051;-53
2022/09/18 05:14:41;;;;;;;4.28;2.00;;;9.60;99.90;;;;;;4954688;28;20098;-54
2022/09/18 05:17:10;;;;;;;5.13;2.60;;;9.50;99.90;;;;;;4954399;28;20098;-57
2022/09/18 05:19:40;;;;;;;4.93;2.10;;;9.50;99.90;;;;;;4956311;28;20483;-56
2022/09/18 05:22:20;;;;;;;4.35;2.08;;;9.50;99.90;;;;;;4952861;29;20047;-55
2022/09/18 05:24:49;;;;;;;5.88;2.20;;;9.50;99.90;;;;;;4953462;28;20091;-59
2022/09/18 05:27:16;;;;;;;4.50;2.00;;;9.40;99.90;;;;;;4952811;29;20424;-57
2022/09/18 05:29:43;;;;;;;4.15;2.00;;;9.40;99.90;;;;;;4954188;28;20501;-57
2022/09/18 05:32:17;;;;;;;5.35;2.10;;;9.40;99.90;;;;;;4953625;28;20050;-57
2022/09/18 05:34:44;;;;;;;6.88;2.13;;;9.30;99.90;;;;;;4954491;28;20044;-57
2022/09/18 05:37:12;;;;;;;4.43;2.05;;;9.30;99.90;;;;;;4953243;29;20113;-58
2022/09/18 05:39:40;;;;;;;4.75;2.17;;;9.30;99.90;;;;;;4954616;29;20047;-54
2022/09/18 05:42:06;;;;;;;4.43;1.80;;;9.30;99.90;;;;;;4954075;29;20075;-59
2022/09/18 05:44:33;;;;;;;4.65;1.90;;;9.30;99.90;;;;;;4953893;28;20047;-55
2022/09/18 05:47:09;;;;;;;9.13;2.20;;;9.30;99.90;;;;;;4954586;28;20078;-56
2022/09/18 05:49:37;;;;;;;4.28;2.20;;;9.30;99.90;;;;;;4953710;29;20044;-59
2022/09/18 05:52:05;;;;;;;4.50;2.30;;;9.30;99.90;;;;;;4953581;28;20055;-55
2022/09/18 05:54:35;;;;;;;5.63;2.28;;;9.30;99.90;;;;;;4953500;28;20051;-58
2022/09/18 05:57:01;;;;;;;9.30;2.30;;;9.30;99.90;;;;;;4952086;29;20044;-55
2022/09/18 05:59:30;;;;;;;4.28;1.77;;;9.20;99.90;;;;;;4952283;28;20131;-56
2022/09/18 06:01:59;;;;;;;7.75;2.40;;;9.30;99.90;;;;;;4953765;29;20043;-52
2022/09/18 06:04:52;;;;;;;6.97;2.13;;;9.30;99.90;;;;;;4954199;28;20133;-59
2022/09/18 06:07:19;;;;;;;5.00;1.70;;;9.30;99.90;;;;;;4951363;28;20055;-56
2022/09/18 06:09:46;;;;;;;4.20;1.48;;;9.30;99.90;;;;;;4953982;28;20051;-57
2022/09/18 06:12:12;;;;;;;4.95;1.80;;;9.40;99.90;;;;;;4952456;28;20498;-59
2022/09/18 06:14:39;;;;;;;5.88;1.75;;;9.40;99.90;;;;;;4955301;28;20091;-57
2022/09/18 06:17:06;;;;;;;4.00;1.92;;;9.40;99.90;;;;;;4953462;28;20098;-54
2022/09/18 06:19:34;;;;;;;5.60;1.83;;;9.40;99.90;;;;;;4936262;28;20371;-59
2022/09/18 06:22:00;;;;;;;4.00;1.80;;;9.50;99.90;;;;;;4952989;29;20043;-58
2022/09/18 06:24:27;;;;;;;6.53;1.80;;;9.50;99.90;;;;;;4952122;28;20044;-57
2022/09/18 06:27:04;;;;;;;6.57;2.45;;;9.50;99.90;;;;;;4967912;28;20035;-58
2022/09/18 06:29:31;;;;;;;4.22;1.70;;;9.60;99.90;;;;;;4954009;29;20051;-58
2022/09/18 06:32:04;;;;;;;3.40;1.70;;;9.60;99.90;;;;;;4952055;28;20043;-58
2022/09/18 06:34:31;;;;;;;3.83;1.55;;;9.60;99.90;;;;;;4952339;28;20043;-59
2022/09/18 06:37:05;;;;;;;4.45;1.60;;;9.60;99.90;;;;;;4953288;29;20554;-56
2022/09/18 06:39:41;;;;;;;4.20;1.65;;;9.70;99.90;;;;;;4953765;29;20495;-54
2022/09/18 06:42:13;;;;;;;6.30;1.83;;;9.70;99.90;;;;;;4938123;29;20462;-57
2022/09/18 06:45:00;;;;;;;3.55;2.00;;;9.70;99.90;;;;;;4952488;28;20047;-56
2022/09/18 06:47:28;;;;;;;4.25;1.88;;;9.80;99.90;;;;;;4954256;28;20416;-57
2022/09/18 06:49:55;;;;;;;5.75;2.05;;;9.80;99.90;;;;;;4942152;29;20075;-55
2022/09/18 06:52:22;;;;;;;5.00;2.00;;;9.80;99.90;;;;;;4953481;28;20039;-57
2022/09/18 06:54:53;;;;;;;3.33;1.50;;;9.90;99.90;;;;;;4954439;28;20051;-58
2022/09/18 06:57:30;;;;;;;4.00;1.73;;;9.90;99.90;;;;;;4965663;28;20556;-52
2022/09/18 06:59:57;;;;;;;5.05;1.90;;;10.00;99.90;;;;;;4957622;29;20043;-58
2022/09/18 07:02:25;;;;;;;3.50;1.73;;;10.00;99.90;;;;;;4953772;28;20043;-54
2022/09/18 07:05:11;;;;;;;4.57;1.70;;;10.10;99.90;;;;;;4958312;28;20137;-57
2022/09/18 07:07:39;;;;;;;3.83;1.50;;;10.10;99.90;;;;;;4955256;29;20083;-54
2022/09/18 07:10:06;;;;;;;4.40;1.63;;;10.20;99.90;;;;;;4956669;29;20071;-56
2022/09/18 07:12:47;;;;;;;;;;;10.20;99.90;;;;;;4955956;29;20145;-54
2022/09/18 07:15:15;;;;;;;3.92;1.50;;;10.20;99.90;;;;;;4958450;28;19922;-57
2022/09/18 07:17:42;;;;;;;4.10;1.58;;;10.30;99.90;;;;;;4954207;29;20077;-57
2022/09/18 07:20:11;;;;;;;4.47;1.70;;;10.30;99.90;;;;;;4948092;29;20044;-54
2022/09/18 07:22:41;;;;;;;5.80;1.70;;;10.40;99.90;;;;;;4955986;28;20051;-56
2022/09/18 07:25:13;;;;;;;4.07;1.75;;;10.40;99.90;;;;;;4956453;28;20211;-59
2022/09/18 07:27:41;;;;;;;4.65;1.75;;;10.50;99.90;;;;;;4953916;29;20403;-56
2022/09/18 07:30:09;;;;;;;4.22;1.60;;;10.50;99.90;;;;;;4954243;28;20507;-57
2022/09/18 07:32:36;;;;;;;5.20;2.10;;;10.60;99.90;;;;;;4962038;28;20105;-55
2022/09/18 07:35:09;;;;;;;3.03;1.77;;;10.60;99.90;;;;;;4956071;28;20058;-58
2022/09/18 07:37:36;;;;;;;3.78;1.60;;;10.70;99.90;;;;;;4957113;29;20047;-57
2022/09/18 07:40:12;;;;;;;3.95;1.83;;;10.70;99.90;;;;;;4948370;28;20073;-58
2022/09/18 07:42:57;;;;;;;5.00;1.70;;;10.70;99.90;;;;;;4956823;28;20605;-59
2022/09/18 07:45:24;;;;;;;3.10;1.60;;;10.80;99.90;;;;;;4955634;28;20052;-56
2022/09/18 07:47:54;;;;;;;3.25;1.38;;;10.80;99.90;;;;;;4954088;29;20090;-57
2022/09/18 07:50:21;;;;;;;3.05;1.58;;;10.80;99.90;;;;;;4950730;29;20075;-58
2022/09/18 07:52:48;;;;;;;3.67;1.90;;;10.90;99.90;;;;;;4954547;29;20075;-59
2022/09/18 07:55:20;;;;;;;6.93;3.13;;;10.90;99.90;;;;;;4955112;29;20043;-58
2022/09/18 07:57:47;;;;;;;4.70;2.15;;;11.00;99.90;;;;;;4957613;28;20089;-56
2022/09/18 08:00:32;;;;;;;6.90;1.77;;;11.00;99.80;;;;;;4955959;29;21208;-58
2022/09/18 08:03:00;;;;;;;5.22;2.00;;;11.10;99.80;;;;;;4955991;28;20039;-52
2022/09/18 08:05:46;;;;;;;4.88;2.30;;;11.10;99.80;;;;;;4957760;29;20047;-56
2022/09/18 08:08:13;;;;;;;9.25;2.63;;;11.20;99.90;;;;;;4954912;29;20547;-58
2022/09/18 08:10:58;;;;;;;8.23;2.40;;;11.20;99.70;;;;;;4953913;29;20195;-58
2022/09/18 08:13:42;;;;;;;3.45;2.03;;;11.30;99.70;;;;;;4952369;28;20131;-59
2022/09/18 08:16:23;;;;;;;5.82;2.30;;;11.30;99.70;;;;;;4955690;29;20101;-58
2022/09/18 08:18:53;;;;;;;6.50;2.03;;;11.30;99.60;;;;;;4952034;29;20047;-55
2022/09/18 08:21:39;;;;;;;6.53;1.92;;;11.40;99.60;;;;;;4954714;29;20054;-56
2022/09/18 08:24:11;;;;;;;3.95;1.77;;;11.50;99.40;;;;;;4956083;29;20071;-58
2022/09/18 08:26:38;;;;;;;4.75;1.65;;;11.60;99.00;;;;;;4955086;28;20113;-57
2022/09/18 08:29:05;;;;;;;3.17;1.25;;;11.70;98.90;;;;;;4952888;28;20130;-60
2022/09/18 08:31:34;;;;;;;3.65;1.23;;;11.70;98.60;;;;;;4953638;28;20059;-57
2022/09/18 08:34:03;;;;;;;2.83;1.13;;;11.80;98.50;;;;;;4955013;29;20039;-57
2022/09/18 08:36:30;;;;;;;6.68;1.38;;;11.90;98.70;;;;;;4954957;28;20494;-60
2022/09/18 08:39:01;;;;;;;4.82;1.88;;;12.00;98.60;;;;;;4955328;29;20081;-56
2022/09/18 08:41:51;;;;;;;7.63;1.38;;;12.10;98.50;;;;;;4954009;29;20035;-53
2022/09/18 08:44:22;;;;;;;5.20;1.30;;;12.10;98.10;;;;;;4952570;28;20061;-56
2022/09/18 08:46:49;;;;;;;3.95;1.10;;;12.20;98.30;;;;;;4963596;28;20151;-57
2022/09/18 08:49:17;;;;;;;3.55;1.20;;;12.20;98.20;;;;;;4952547;29;20522;-53
2022/09/18 08:51:44;;;;;;;5.68;1.30;;;12.30;98.10;;;;;;4953765;29;20062;-58
2022/09/18 08:54:10;;;;;;;5.28;1.42;;;12.30;97.90;;;;;;4950045;28;20043;-55
2022/09/18 08:56:56;;;;;;;4.75;1.30;;;12.40;97.80;;;;;;4953778;29;20106;-56
2022/09/18 08:59:35;;;;;;;4.72;1.40;;;12.40;97.90;;;;;;4947580;29;20067;-55
2022/09/18 09:02:04;;;;;;;5.22;1.20;;;12.50;97.80;;;;;;4952908;29;20043;-56
2022/09/18 09:04:31;;;;;;;3.75;1.60;;;12.50;97.80;;;;;;4952095;29;20074;-56
2022/09/18 09:06:58;;;;;;;4.95;1.48;;;12.60;97.70;;;;;;4946600;29;20055;-54
2022/09/18 09:09:31;;;;;;;4.68;1.25;;;12.70;97.40;;;;;;4949075;28;20055;-56
2022/09/18 09:11:58;;;;;;;3.83;1.30;;;12.70;97.40;;;;;;4951633;29;20062;-53
2022/09/18 09:14:25;;;;;;;3.83;1.13;;;12.70;97.20;;;;;;4947123;29;20040;-58
2022/09/18 09:17:12;;;;;;;4.15;1.20;;;12.80;97.10;;;;;;4949325;29;20067;-56
2022/09/18 09:19:39;;;;;;;4.55;1.33;;;12.80;96.80;;;;;;4958410;28;20510;-55
2022/09/18 09:22:06;;;;;;;4.47;1.25;;;12.90;96.70;;;;;;4955333;28;20039;-55
2022/09/18 09:24:34;;;;;;;3.63;1.23;;;12.90;96.80;;;;;;4954765;28;20520;-55
2022/09/18 09:27:04;;;;;;;3.45;1.23;;;13.00;96.80;;;;;;4950106;29;20066;-55
2022/09/18 09:29:49;;;;;;;4.75;1.38;;;13.00;96.70;;;;;;4949728;28;20459;-56
2022/09/18 09:32:34;;;;;;;3.30;1.00;;;13.10;96.40;;;;;;4951075;29;20062;-58
2022/09/18 09:35:36;;;;;;;5.05;1.20;;;13.20;95.90;;;;;;4941727;29;20055;-55
2022/09/18 09:38:10;;;;;;;4.03;1.15;;;13.30;96.10;;;;;;4948966;29;20102;-59
2022/09/18 09:40:37;;;;;;;3.95;1.05;;;13.30;95.90;;;;;;4954549;29;20146;-54
2022/09/18 09:43:04;;;;;;;3.33;1.13;;;13.40;95.80;;;;;;4954669;28;20050;-55
2022/09/18 09:45:31;;;;;;;9.05;1.48;;;13.40;96.00;;;;;;4955931;28;20055;-57
2022/09/18 09:47:59;;;;;;;4.35;1.25;;;13.50;95.80;;;;;;4954491;28;20109;-57
2022/09/18 09:50:28;;;;;;;6.63;1.65;;;13.50;95.60;;;;;;4954183;28;20047;-57
2022/09/18 09:52:56;;;;;;;3.80;1.10;;;13.60;95.40;;;;;;4949405;28;20039;-56
2022/09/18 09:55:23;;;;;;;3.67;1.15;;;13.60;95.30;;;;;;4953888;28;20491;-58
2022/09/18 09:57:52;;;;;;;4.10;1.30;;;13.70;95.50;;;;;;4950256;29;20455;-55
2022/09/18 10:00:19;;;;;;;4.78;1.30;;;13.80;95.60;;;;;;4935662;29;20067;-57
2022/09/18 10:02:58;;;;;;;2.78;1.10;;;13.80;95.10;;;;;;4954189;28;20043;-57
2022/09/18 10:05:29;;;;;;;4.25;1.50;;;14.00;94.80;;;;;;4950640;28;20047;-60
2022/09/18 10:07:57;;;;;;;3.78;1.00;;;14.10;94.70;;;;;;4946185;29;20039;-58
2022/09/18 10:10:23;;;;;;;5.28;1.10;;;14.20;94.60;;;;;;4953468;28;20062;-58
2022/09/18 10:12:51;;;;;;;2.03;0.77;;;14.30;94.40;;;;;;4952551;28;20102;-56
2022/09/18 10:15:18;;;;;;;4.38;1.00;;;14.40;94.20;;;;;;4946590;28;20475;-58
2022/09/18 10:17:45;;;;;;;5.63;1.00;;;14.50;94.30;;;;;;4950042;29;20043;-55
2022/09/18 10:20:12;;;;;;;3.55;0.75;;;14.60;93.70;;;;;;4953965;28;20061;-56
2022/09/18 10:22:39;;;;;;;4.55;1.08;;;14.60;93.30;;;;;;4951791;28;20047;-56
2022/09/18 10:25:06;;;;;;;3.13;1.00;;;14.70;93.30;;;;;;4952199;28;20066;-60
2022/09/18 10:27:32;;;;;;;5.20;1.20;;;14.80;93.10;;;;;;4962154;28;20058;-59
2022/09/18 10:30:00;;;;;;;5.60;1.00;;;14.80;93.30;;;;;;4952273;29;20117;-55
2022/09/18 10:32:40;;;;;;;3.03;0.93;;;14.90;92.80;;;;;;4969139;28;20138;-54
2022/09/18 10:35:19;;;;;;;2.90;0.80;;;14.90;92.50;;;;;;4953134;29;20074;-56
2022/09/18 10:37:46;;;;;;;4.93;1.10;;;15.00;92.80;;;;;;4952331;29;20498;-57
2022/09/18 10:40:23;;;;;;;3.05;0.90;;;15.00;92.60;;;;;;4953946;28;20138;-54
2022/09/18 10:42:50;;;;;;;2.60;0.90;;;15.00;92.10;;;;;;4948773;29;20044;-56
2022/09/18 10:45:20;;;;;;;5.05;1.00;;;15.10;91.80;;;;;;4945687;29;20036;-56
2022/09/18 10:47:53;;;;;;;2.58;1.00;;;15.10;92.20;;;;;;4951883;29;20044;-56
2022/09/18 10:50:20;;;;;;;2.20;1.05;;;15.30;92.20;;;;;;4951828;28;20047;-55
2022/09/18 10:52:52;;;;;;;2.60;0.80;;;15.30;91.30;;;;;;4953681;28;20043;-53
2022/09/18 10:55:27;;;;;;;2.25;1.20;;;15.30;91.50;;;;;;4948496;29;20048;-59
2022/09/18 10:57:57;;;;;;;5.50;0.88;;;15.40;91.70;;;;;;4944731;28;20039;-58
2022/09/18 11:00:25;;;;;;;4.88;0.70;;;15.60;91.30;;;;;;4941046;29;20085;-54
2022/09/18 11:02:56;;;;;;;2.08;0.65;;;15.70;90.90;;;;;;4948133;28;20040;-54
2022/09/18 11:05:24;;;;;;;2.38;0.73;;;15.70;90.80;;;;;;4951321;29;20040;-57
2022/09/18 11:07:51;;;;;;;1.98;0.90;;;15.80;91.20;;;;;;4938076;29;20052;-58
2022/09/18 11:10:17;;;;;;;6.68;1.05;;;15.80;91.20;;;;;;4953281;29;20095;-57
2022/09/18 11:12:44;;;;;;;3.08;0.82;;;16.00;91.10;;;;;;4951785;29;20435;-55
2022/09/18 11:15:13;;;;;;;1.95;0.70;;;16.00;90.90;;;;;;4949667;28;20044;-54
2022/09/18 11:17:41;;;;;;;3.45;1.15;;;16.10;90.00;;;;;;4952633;28;20138;-57
2022/09/18 11:20:08;;;;;;;10.07;5.50;;;16.20;90.40;;;;;;4941299;29;20087;-53
2022/09/18 11:22:49;;;;;;;3.88;1.23;;;16.30;90.50;;;;;;4949287;28;20051;-56
2022/09/18 11:25:28;;;;;;;2.15;0.85;;;16.30;90.50;;;;;;4950070;28;20058;-56
2022/09/18 11:28:08;;;;;;;2.05;1.08;;;16.30;90.20;;;;;;4952142;28;20059;-58
2022/09/18 11:30:38;;;;;;;2.10;0.70;;;16.20;88.40;;;;;;4948620;28;20090;-57
2022/09/18 11:33:10;;;;;;;2.90;1.15;;;16.20;88.50;;;;;;4953987;28;20116;-59
2022/09/18 11:35:37;;;;;;;4.53;2.45;;;16.20;90.00;;;;;;4950353;29;20043;-55
2022/09/18 11:38:06;;;;;;;2.97;0.90;;;16.20;90.00;;;;;;4956273;29;20042;-56
2022/09/18 11:40:36;;;;;;;2.75;0.85;;;16.10;89.20;;;;;;4956752;29;20402;-55
2022/09/18 11:43:04;;;;;;;4.05;1.42;;;16.10;90.00;;;;;;4953556;29;20504;-59
2022/09/18 11:45:32;;;;;;;3.03;0.77;;;16.10;88.90;;;;;;4954588;29;20083;-54
2022/09/18 11:47:59;;;;;;;3.05;1.67;;;16.00;88.30;;;;;;4953638;29;20443;-56
2022/09/18 11:50:26;;;;;;;2.42;1.10;;;16.10;88.80;;;;;;4950639;28;20399;-58
2022/09/18 11:52:53;;;;;;;2.58;1.20;;;16.20;89.30;;;;;;4953930;29;20051;-58
2022/09/18 11:55:22;;;;;;;4.15;0.85;;;16.30;87.80;;;;;;4953120;29;20439;-51
2022/09/18 11:57:49;;;;;;;5.50;0.80;;;16.30;87.20;;;;;;4943483;29;20043;-54
2022/09/18 12:00:17;;;;;;;1.65;0.68;;;16.30;87.60;;;;;;4950134;28;20094;-56
2022/09/18 12:02:49;;;;;;;2.00;0.70;;;16.50;88.00;;;;;;4967742;28;20134;-55
2022/09/18 12:05:18;;;;;;;1.80;0.80;;;16.60;87.40;;;;;;4952569;28;20123;-58
2022/09/18 12:07:47;;;;;;;4.32;0.90;;;16.60;86.40;;;;;;4953144;29;20047;-54
2022/09/18 12:10:14;;;;;;;6.15;0.80;;;16.80;87.10;;;;;;4943203;29;20152;-52
2022/09/18 12:12:41;;;;;;;1.23;0.50;;;16.80;86.00;;;;;;4950804;29;20077;-52
2022/09/18 12:15:08;;;;;;;2.97;0.63;;;16.90;87.10;;;;;;4955551;28;20482;-57
2022/09/18 12:17:35;;;;;;;4.30;0.65;;;17.00;86.60;;;;;;4967544;28;20040;-55
2022/09/18 12:20:02;;;;;;;3.42;0.90;;;17.00;86.30;;;;;;4957035;28;20498;-55
2022/09/18 12:22:30;;;;;;;1.77;0.73;;;17.00;86.20;;;;;;4970381;28;20067;-58
2022/09/18 12:24:57;;;;;;;2.47;0.60;;;17.10;85.20;;;;;;4961014;28;20066;-56
2022/09/18 12:27:44;;;;;;;2.65;0.73;;;17.10;85.60;;;;;;4956505;29;20055;-51
2022/09/18 12:30:11;;;;;;;1.92;0.60;;;17.10;84.20;;;;;;4940234;29;20063;-59
2022/09/18 12:32:38;;;;;;;2.97;0.93;;;17.20;85.40;;;;;;4950517;29;20486;-55
2022/09/18 12:35:07;;;;;;;3.08;0.70;;;17.20;84.50;;;;;;4957539;28;20396;-57
2022/09/18 12:37:34;;;;;;;2.78;0.90;;;17.30;84.30;;;;;;4952002;28;20044;-58
2022/09/18 12:40:01;;;;;;;2.95;1.20;;;17.20;85.00;;;;;;4950159;29;20074;-55
2022/09/18 12:42:28;;;;;;;2.90;1.00;;;17.30;84.70;;;;;;4954455;29;20090;-58
2022/09/18 12:44:55;;;;;;;2.72;0.98;;;17.30;84.50;;;;;;4954442;28;20118;-51
2022/09/18 12:47:22;;;;;;;2.70;1.00;;;17.30;84.20;;;;;;4952167;28;20138;-58
2022/09/18 12:49:48;;;;;;;4.75;1.90;;;17.40;85.10;;;;;;4955372;29;20142;-57
2022/09/18 12:52:15;;;;;;;2.42;1.05;;;17.40;84.60;;;;;;4955716;29;20126;-58
2022/09/18 12:54:42;;;;;;;2.50;1.00;;;17.40;84.40;;;;;;4954674;28;20122;-55
2022/09/18 12:57:09;;;;;;;3.03;0.98;;;17.50;84.70;;;;;;4955413;28;20440;-56
2022/09/18 12:59:36;;;;;;;1.98;1.10;;;17.50;84.80;;;;;;4953594;28;20458;-56
2022/09/18 13:02:02;;;;;;;3.03;1.05;;;17.50;85.30;;;;;;4954282;28;20040;-52
2022/09/18 13:04:29;;;;;;;2.90;1.52;;;17.60;85.30;;;;;;4956443;28;20047;-53